createdAt,value
2022-09-13T00:00:39.695Z,18.69
2022-09-13T00:03:06.094Z,18.65
2022-09-13T00:05:32.657Z,18.60
2022-09-13T00:07:59.276Z,18.60
2022-09-13T00:10:26.220Z,18.57
2022-09-13T00:12:53.466Z,18.52
2022-09-13T00:15:20.290Z,18.51
2022-09-13T00:17:47.250Z,18.55
2022-09-13T00:20:14.158Z,18.52
2022-09-13T00:22:40.690Z,18.43
2022-09-13T00:25:08.257Z,18.44
2022-09-13T00:27:36.048Z,18.32
2022-09-13T00:30:05.223Z,18.41
2022-09-13T00:32:32.157Z,18.42
2022-09-13T00:34:58.527Z,18.42
2022-09-13T00:37:24.943Z,18.40
2022-09-13T00:39:51.352Z,18.34
2022-09-13T00:42:18.368Z,18.34
2022-09-13T00:44:59.271Z,18.32
2022-09-13T00:48:07.900Z,18.31
2022-09-13T00:50:39.331Z,18.30
2022-09-13T00:53:13.790Z,18.35
2022-09-13T00:55:50.088Z,18.42
2022-09-13T00:58:42.993Z,18.39
2022-09-13T01:01:12.769Z,18.36
2022-09-13T01:03:40.092Z,18.42
2022-09-13T01:06:11.516Z,18.40
2022-09-13T01:08:41.990Z,18.31
2022-09-13T01:11:19.564Z,18.41
2022-09-13T01:13:47.771Z,18.40
2022-09-13T01:16:14.273Z,18.38
2022-09-13T01:18:41.780Z,18.33
2022-09-13T01:21:33.120Z,18.38
2022-09-13T01:24:24.447Z,18.40
2022-09-13T01:27:28.610Z,18.44
2022-09-13T01:30:21.114Z,18.43
2022-09-13T01:33:02.733Z,18.41
2022-09-13T01:35:53.540Z,18.41
2022-09-13T01:38:42.276Z,18.39
2022-09-13T01:41:42.790Z,18.34
2022-09-13T01:44:24.555Z,18.30
2022-09-13T01:46:56.861Z,18.29
2022-09-13T01:49:35.518Z,18.19
2022-09-13T01:52:09.557Z,18.20
2022-09-13T01:54:52.344Z,18.17
2022-09-13T01:57:30.325Z,18.19
2022-09-13T02:00:02.709Z,18.15
2022-09-13T02:02:43.378Z,18.17
2022-09-13T02:05:23.999Z,18.14
2022-09-13T02:07:58.252Z,18.08
2022-09-13T02:10:59.759Z,18.04
2022-09-13T02:13:31.767Z,18.04
2022-09-13T02:16:06.231Z,18.02
2022-09-13T02:18:39.933Z,17.95
2022-09-13T02:21:14.812Z,18.02
2022-09-13T02:23:48.063Z,17.96
2022-09-13T02:26:15.611Z,18.10
2022-09-13T02:28:48.118Z,17.92
2022-09-13T02:31:19.474Z,17.98
2022-09-13T02:33:52.098Z,17.88
2022-09-13T02:36:25.932Z,17.92
2022-09-13T02:39:12.300Z,17.91
2022-09-13T02:42:00.429Z,17.97
2022-09-13T02:44:36.134Z,18.00
2022-09-13T02:47:14.337Z,18.01
2022-09-13T02:49:48.441Z,18.01
2022-09-13T02:52:39.762Z,17.98
2022-09-13T02:55:16.350Z,17.97
2022-09-13T02:57:55.306Z,17.87
2022-09-13T03:00:22.560Z,17.90
2022-09-13T03:02:50.933Z,17.90
2022-09-13T03:05:17.614Z,17.88
2022-09-13T03:07:44.105Z,17.88
2022-09-13T03:10:14.721Z,17.84
2022-09-13T03:13:05.999Z,17.91
2022-09-13T03:15:54.200Z,17.91
2022-09-13T03:18:51.721Z,17.90
2022-09-13T03:21:33.362Z,17.90
2022-09-13T03:24:06.923Z,17.86
2022-09-13T03:27:05.602Z,17.87
2022-09-13T03:30:12.478Z,17.85
2022-09-13T03:33:00.692Z,17.85
2022-09-13T03:35:51.901Z,17.82
2022-09-13T03:38:32.465Z,17.82
2022-09-13T03:41:11.334Z,17.85
2022-09-13T03:43:43.728Z,17.82
2022-09-13T03:46:20.278Z,17.77
2022-09-13T03:48:47.717Z,17.74
2022-09-13T03:51:14.879Z,17.73
2022-09-13T03:53:53.088Z,17.73
2022-09-13T03:56:20.756Z,17.73
2022-09-13T03:58:48.709Z,17.72
2022-09-13T04:01:20.283Z,17.57
2022-09-13T04:03:46.722Z,17.68
2022-09-13T04:06:13.247Z,17.68
2022-09-13T04:08:39.671Z,17.66
2022-09-13T04:11:06.297Z,17.68
2022-09-13T04:13:33.039Z,17.68
2022-09-13T04:16:03.848Z,17.66
2022-09-13T04:18:31.003Z,17.70
2022-09-13T04:20:59.754Z,17.71
2022-09-13T04:23:27.607Z,17.71
2022-09-13T04:25:54.056Z,17.70
2022-09-13T04:28:21.903Z,17.71
2022-09-13T04:30:49.509Z,17.71
2022-09-13T04:33:17.297Z,17.69
2022-09-13T04:35:43.951Z,17.69
2022-09-13T04:38:11.514Z,17.69
2022-09-13T04:40:39.132Z,17.72
2022-09-13T04:43:05.500Z,17.76
2022-09-13T04:45:32.474Z,17.68
2022-09-13T04:47:58.942Z,17.79
2022-09-13T04:50:25.710Z,17.83
2022-09-13T04:52:55.380Z,17.86
2022-09-13T04:55:22.186Z,17.88
2022-09-13T04:57:53.014Z,17.80
2022-09-13T05:00:19.563Z,17.91
2022-09-13T05:02:46.059Z,17.91
2022-09-13T05:05:12.465Z,17.93
2022-09-13T05:07:39.308Z,17.95
2022-09-13T05:10:06.213Z,17.96
2022-09-13T05:12:33.603Z,17.95
2022-09-13T05:15:00.018Z,17.89
2022-09-13T05:17:26.513Z,17.91
2022-09-13T05:19:52.854Z,17.99
2022-09-13T05:22:19.297Z,17.99
2022-09-13T05:24:45.623Z,18.05
2022-09-13T05:27:12.054Z,18.05
2022-09-13T05:29:38.419Z,18.06
2022-09-13T05:32:04.905Z,18.08
2022-09-13T05:34:31.355Z,18.09
2022-09-13T05:36:57.733Z,18.11
2022-09-13T05:39:34.020Z,18.11
2022-09-13T05:42:06.267Z,18.14
2022-09-13T05:44:32.701Z,18.15
2022-09-13T05:46:59.085Z,18.15
2022-09-13T05:49:25.668Z,18.13
2022-09-13T05:51:52.019Z,18.21
2022-09-13T05:54:18.521Z,18.21
2022-09-13T05:56:44.885Z,18.21
2022-09-13T05:59:14.127Z,18.15
2022-09-13T06:01:41.192Z,18.21
2022-09-13T06:04:07.644Z,18.22
2022-09-13T06:06:35.251Z,18.22
2022-09-13T06:09:01.678Z,18.27
2022-09-13T06:11:28.379Z,18.27
2022-09-13T06:13:54.834Z,18.30
2022-09-13T06:16:21.669Z,18.28
2022-09-13T06:18:48.942Z,18.24
2022-09-13T06:21:18.498Z,18.14
2022-09-13T06:23:46.350Z,18.19
2022-09-13T06:26:15.656Z,18.18
2022-09-13T06:28:42.639Z,18.15
2022-09-13T06:31:14.559Z,18.17
2022-09-13T06:33:42.646Z,18.05
2022-09-13T06:36:11.479Z,18.07
2022-09-13T06:38:39.496Z,18.10
2022-09-13T06:41:08.900Z,18.13
2022-09-13T06:43:35.825Z,18.16
2022-09-13T06:46:10.617Z,18.15
2022-09-13T06:48:39.332Z,18.16
2022-09-13T06:51:12.006Z,18.14
2022-09-13T06:53:38.879Z,18.15
2022-09-13T06:56:10.536Z,18.20
2022-09-13T06:58:38.135Z,18.23
2022-09-13T07:01:21.848Z,18.28
2022-09-13T07:04:06.088Z,18.34
2022-09-13T07:06:35.409Z,18.36
2022-09-13T07:09:03.601Z,18.42
2022-09-13T07:11:33.475Z,18.36
2022-09-13T07:14:01.145Z,18.55
2022-09-13T07:16:31.663Z,18.57
2022-09-13T07:19:00.759Z,18.59
2022-09-13T07:21:28.195Z,18.67
2022-09-13T07:23:56.901Z,18.66
2022-09-13T07:26:25.008Z,18.71
2022-09-13T07:28:54.094Z,18.79
2022-09-13T07:31:23.266Z,18.88
2022-09-13T07:34:12.856Z,18.94
2022-09-13T07:36:39.192Z,19.00
2022-09-13T07:39:06.734Z,19.04
2022-09-13T07:41:35.106Z,19.05
2022-09-13T07:44:02.102Z,19.16
2022-09-13T07:46:33.687Z,19.30
2022-09-13T07:49:01.649Z,19.41
2022-09-13T07:51:30.892Z,19.48
2022-09-13T07:54:03.607Z,19.51
2022-09-13T07:56:32.497Z,19.49
2022-09-13T07:59:00.898Z,19.56
2022-09-13T08:01:39.672Z,19.52
2022-09-13T08:04:08.904Z,19.69
2022-09-13T08:06:36.950Z,19.90
2022-09-13T08:09:05.278Z,20.07
2022-09-13T08:11:40.374Z,20.09
2022-09-13T08:14:09.871Z,20.04
2022-09-13T08:16:36.331Z,19.91
2022-09-13T08:19:04.477Z,19.81
2022-09-13T08:21:36.363Z,19.64
2022-09-13T08:24:03.576Z,19.64
2022-09-13T08:26:32.427Z,19.52
2022-09-13T08:29:01.447Z,19.40
2022-09-13T08:31:28.907Z,19.43
2022-09-13T08:33:56.011Z,19.41
2022-09-13T08:36:24.036Z,19.43
2022-09-13T08:38:54.630Z,19.52
2022-09-13T08:41:42.567Z,19.65
2022-09-13T08:44:26.497Z,19.63
2022-09-13T08:47:16.232Z,19.55
2022-09-13T08:49:46.501Z,19.49
2022-09-13T08:52:28.423Z,19.53
2022-09-13T08:54:58.328Z,19.58
2022-09-13T08:57:52.410Z,19.55
2022-09-13T09:00:25.836Z,19.59
2022-09-13T09:03:07.678Z,19.66
2022-09-13T09:05:45.013Z,20.02
2022-09-13T09:08:19.775Z,20.02
2022-09-13T09:10:49.224Z,19.98
2022-09-13T09:13:26.366Z,19.88
2022-09-13T09:16:00.250Z,19.94
2022-09-13T09:18:36.045Z,19.90
2022-09-13T09:21:04.071Z,19.76
2022-09-13T09:23:36.742Z,19.69
2022-09-13T09:26:23.834Z,19.66
2022-09-13T09:29:00.367Z,19.73
2022-09-13T09:31:48.439Z,19.90
2022-09-13T09:34:49.764Z,20.25
2022-09-13T09:37:22.343Z,20.35
2022-09-13T09:39:49.805Z,20.27
2022-09-13T09:42:24.909Z,20.27
2022-09-13T09:45:05.605Z,20.49
2022-09-13T09:47:44.369Z,20.87
2022-09-13T09:50:16.214Z,20.98
2022-09-13T09:52:51.702Z,21.17
2022-09-13T09:55:27.649Z,21.31
2022-09-13T09:57:58.016Z,21.54
2022-09-13T10:00:30.191Z,21.90
2022-09-13T10:03:01.218Z,22.03
2022-09-13T10:05:28.967Z,21.93
2022-09-13T10:08:02.823Z,21.80
2022-09-13T10:10:36.934Z,21.92
2022-09-13T10:13:06.991Z,21.73
2022-09-13T10:15:35.418Z,21.48
2022-09-13T10:18:03.921Z,21.36
2022-09-13T10:20:31.528Z,21.15
2022-09-13T10:23:16.148Z,21.09
2022-09-13T10:25:48.002Z,21.01
2022-09-13T10:28:19.547Z,20.99
2022-09-13T10:30:54.472Z,20.93
2022-09-13T10:33:35.217Z,20.89
2022-09-13T10:36:08.114Z,20.99
2022-09-13T10:38:45.426Z,21.12
2022-09-13T10:41:23.527Z,21.59
2022-09-13T10:43:57.125Z,21.81
2022-09-13T10:46:23.945Z,22.03
2022-09-13T10:48:56.208Z,21.76
2022-09-13T10:51:38.709Z,21.57
2022-09-13T10:54:17.182Z,21.43
2022-09-13T10:56:45.229Z,21.40
2022-09-13T10:59:29.666Z,21.45
2022-09-13T11:02:26.731Z,21.33
2022-09-13T11:05:14.547Z,21.19
2022-09-13T11:08:05.493Z,20.82
2022-09-13T11:10:45.926Z,20.83
2022-09-13T11:16:37.203Z,20.82
2022-09-13T11:19:40.734Z,20.91
2022-09-13T11:22:26.631Z,21.08
2022-09-13T11:25:09.723Z,21.19
2022-09-13T11:27:53.691Z,21.20
2022-09-13T11:30:25.360Z,21.22
2022-09-13T11:33:13.059Z,21.09
2022-09-13T11:35:49.525Z,20.99
2022-09-13T11:38:37.003Z,20.86
2022-09-13T11:41:03.815Z,20.83
2022-09-13T11:43:42.613Z,20.85
2022-09-13T11:46:23.010Z,20.80
2022-09-13T11:48:57.985Z,20.63
2022-09-13T11:51:45.909Z,20.91
2022-09-13T11:54:50.155Z,21.11
2022-09-13T11:57:26.262Z,21.07
2022-09-13T12:00:08.536Z,21.10
2022-09-13T12:02:49.280Z,21.02
2022-09-13T12:05:25.074Z,20.91
2022-09-13T12:08:19.344Z,20.86
2022-09-13T12:10:54.268Z,20.75
2022-09-13T12:13:41.567Z,20.70
2022-09-13T12:16:12.830Z,20.68
2022-09-13T12:18:44.508Z,20.57
2022-09-13T12:21:15.580Z,20.61
2022-09-13T12:23:53.572Z,20.58
2022-09-13T12:26:40.994Z,20.56
2022-09-13T12:29:32.316Z,20.60
2022-09-13T12:32:05.205Z,20.59
2022-09-13T12:34:43.735Z,20.51
2022-09-13T12:37:24.544Z,20.49
2022-09-13T12:40:12.315Z,20.37
2022-09-13T12:43:25.064Z,20.51
2022-09-13T12:46:00.519Z,20.39
2022-09-13T12:48:57.733Z,20.36
2022-09-13T12:51:29.491Z,20.30
2022-09-13T12:54:23.735Z,20.36
2022-09-13T12:57:16.249Z,20.35
2022-09-13T12:59:58.897Z,20.28
2022-09-13T13:02:38.639Z,20.14
2022-09-13T13:05:26.902Z,20.17
2022-09-13T13:07:58.586Z,20.13
2022-09-13T13:10:30.666Z,19.97
2022-09-13T13:13:10.286Z,19.85
2022-09-13T13:15:36.649Z,19.80
2022-09-13T13:18:32.501Z,19.77
2022-09-13T13:20:58.811Z,19.77
2022-09-13T13:23:31.191Z,19.76
2022-09-13T13:26:02.684Z,19.81
2022-09-13T13:28:44.596Z,19.81
2022-09-13T13:31:35.424Z,19.83
2022-09-13T13:34:23.789Z,19.84
2022-09-13T13:36:59.776Z,19.88
2022-09-13T13:39:26.093Z,19.93
2022-09-13T13:41:55.316Z,19.99
2022-09-13T13:44:21.879Z,19.99
2022-09-13T13:46:49.520Z,19.90
2022-09-13T13:49:31.221Z,19.82
2022-09-13T13:52:16.702Z,19.66
2022-09-13T13:54:44.110Z,19.65
2022-09-13T13:57:32.156Z,19.66
2022-09-13T14:00:13.898Z,19.71
2022-09-13T14:03:15.821Z,19.69
2022-09-13T14:06:10.723Z,19.69
2022-09-13T14:08:37.135Z,19.73
2022-09-13T14:11:33.244Z,19.75
2022-09-13T14:14:18.948Z,19.74
2022-09-13T14:16:55.224Z,19.67
2022-09-13T14:19:31.345Z,19.62
2022-09-13T14:22:19.307Z,19.62
2022-09-13T14:24:53.469Z,19.60
2022-09-13T14:27:24.230Z,19.61
2022-09-13T14:29:54.252Z,19.56
2022-09-13T14:32:23.890Z,19.53
2022-09-13T14:34:58.441Z,19.39
2022-09-13T14:37:32.838Z,19.46
2022-09-13T14:40:08.385Z,19.47
2022-09-13T14:42:46.092Z,19.47
2022-09-13T14:45:14.868Z,19.48
2022-09-13T14:47:55.649Z,19.50
2022-09-13T14:50:30.015Z,19.49
2022-09-13T14:53:00.887Z,19.47
2022-09-13T14:55:32.723Z,19.39
2022-09-13T14:58:06.141Z,19.37
2022-09-13T15:00:37.970Z,19.36
2022-09-13T15:03:12.364Z,19.24
2022-09-13T15:05:39.398Z,19.28
2022-09-13T15:08:33.865Z,19.25
2022-09-13T15:11:06.928Z,19.20
2022-09-13T15:13:34.576Z,19.06
2022-09-13T15:16:01.579Z,19.11
2022-09-13T15:18:36.542Z,19.05
2022-09-13T15:21:06.477Z,18.93
2022-09-13T15:23:35.641Z,18.95
2022-09-13T15:26:08.378Z,18.96
2022-09-13T15:28:47.710Z,19.02
2022-09-13T15:31:26.027Z,19.06
2022-09-13T15:34:12.646Z,19.03
2022-09-13T15:36:39.301Z,18.95
2022-09-13T15:39:08.345Z,18.94
2022-09-13T15:41:39.611Z,18.85
2022-09-13T15:44:08.500Z,18.85
2022-09-13T15:46:44.204Z,18.77
2022-09-13T15:49:17.085Z,18.76
2022-09-13T15:51:44.419Z,18.75
2022-09-13T15:54:16.968Z,18.78
2022-09-13T15:56:47.369Z,18.78
2022-09-13T15:59:16.027Z,18.78
2022-09-13T16:01:44.349Z,18.77
2022-09-13T16:04:11.843Z,18.79
2022-09-13T16:06:38.762Z,18.84
2022-09-13T16:09:18.813Z,18.73
2022-09-13T16:11:46.742Z,18.61
2022-09-13T16:14:14.332Z,18.63
2022-09-13T16:16:40.825Z,18.63
2022-09-13T16:19:15.325Z,18.61
2022-09-13T16:21:42.910Z,18.62
2022-09-13T16:24:09.436Z,18.57
2022-09-13T16:26:35.991Z,18.49
2022-09-13T16:29:02.495Z,18.55
2022-09-13T16:31:28.946Z,18.61
2022-09-13T16:33:55.630Z,18.59
2022-09-13T16:36:23.185Z,18.59
2022-09-13T16:38:49.656Z,18.63
2022-09-13T16:41:18.135Z,18.66
2022-09-13T16:43:44.527Z,18.58
2022-09-13T16:46:13.467Z,18.49
2022-09-13T16:48:40.476Z,18.42
2022-09-13T16:51:09.421Z,18.35
2022-09-13T16:53:38.997Z,18.24
2022-09-13T16:56:11.014Z,18.20
2022-09-13T16:58:39.229Z,18.03
2022-09-13T17:01:07.661Z,18.08
2022-09-13T17:03:36.078Z,18.06
2022-09-13T17:06:14.759Z,18.02
2022-09-13T17:08:48.296Z,17.93
2022-09-13T17:11:17.542Z,17.91
2022-09-13T17:13:44.099Z,17.88
2022-09-13T17:16:27.899Z,17.76
2022-09-13T17:18:57.335Z,17.80
2022-09-13T17:21:24.725Z,17.78
2022-09-13T17:23:51.742Z,17.73
2022-09-13T17:26:18.226Z,17.74
2022-09-13T17:28:44.682Z,17.68
2022-09-13T17:31:11.176Z,17.66
2022-09-13T17:33:37.607Z,17.60
2022-09-13T17:36:09.941Z,17.49
2022-09-13T17:38:37.162Z,17.47
2022-09-13T17:41:12.192Z,17.45
2022-09-13T17:43:40.065Z,17.41
2022-09-13T17:46:08.710Z,17.25
2022-09-13T17:48:35.325Z,17.35
2022-09-13T17:51:07.035Z,17.35
2022-09-13T17:53:46.005Z,17.36
2022-09-13T17:56:20.097Z,17.24
2022-09-13T17:58:46.879Z,17.31
2022-09-13T18:01:13.871Z,17.28
2022-09-13T18:03:40.467Z,17.22
2022-09-13T18:06:08.712Z,17.11
2022-09-13T18:08:37.392Z,17.19
2022-09-13T18:11:17.393Z,17.12
2022-09-13T18:13:46.166Z,17.10
2022-09-13T18:16:20.908Z,17.12
2022-09-13T18:18:49.341Z,17.10
2022-09-13T18:21:19.086Z,17.09
2022-09-13T18:23:47.309Z,17.11
2022-09-13T18:26:16.546Z,16.90
2022-09-13T18:28:43.953Z,17.08
2022-09-13T18:31:19.460Z,17.03
2022-09-13T18:33:46.033Z,17.04
2022-09-13T18:36:16.331Z,16.99
2022-09-13T18:38:49.364Z,16.93
2022-09-13T18:41:18.630Z,16.97
2022-09-13T18:43:50.679Z,16.90
2022-09-13T18:46:24.024Z,16.73
2022-09-13T18:48:53.322Z,16.84
2022-09-13T18:51:29.254Z,16.78
2022-09-13T18:53:59.678Z,16.82
2022-09-13T18:56:27.894Z,16.80
2022-09-13T18:58:56.623Z,16.78
2022-09-13T19:01:29.263Z,16.67
2022-09-13T19:03:58.358Z,16.51
2022-09-13T19:06:26.716Z,16.68
2022-09-13T19:08:55.584Z,16.68
2022-09-13T19:11:45.328Z,16.51
2022-09-13T19:14:15.546Z,16.65
2022-09-13T19:16:44.292Z,16.64
2022-09-13T19:19:10.911Z,16.64
2022-09-13T19:21:37.611Z,16.63
2022-09-13T19:24:09.903Z,16.61
2022-09-13T19:26:40.081Z,16.57
2022-09-13T19:29:11.533Z,16.54
2022-09-13T19:31:40.529Z,16.57
2022-09-13T19:34:08.192Z,16.61
2022-09-13T19:36:36.566Z,16.62
2022-09-13T19:39:04.900Z,16.58
2022-09-13T19:41:32.298Z,16.53
2022-09-13T19:44:01.480Z,16.55
2022-09-13T19:46:31.910Z,16.48
2022-09-13T19:48:59.745Z,16.59
2022-09-13T19:51:34.788Z,16.58
2022-09-13T19:54:01.872Z,16.51
2022-09-13T19:56:40.451Z,16.53
2022-09-13T19:59:09.679Z,16.50
2022-09-13T20:01:42.407Z,16.49
2022-09-13T20:04:14.797Z,16.37
2022-09-13T20:06:44.165Z,16.44
2022-09-13T20:09:15.846Z,16.41
2022-09-13T20:11:45.726Z,16.38
2022-09-13T20:14:14.631Z,16.40
2022-09-13T20:16:42.787Z,16.40
2022-09-13T20:19:38.667Z,16.37
2022-09-13T20:22:01.439Z,16.32
2022-09-13T20:24:28.082Z,16.30
2022-09-13T20:26:54.849Z,16.29
2022-09-13T20:29:21.337Z,16.27
2022-09-13T20:31:47.764Z,16.29
2022-09-13T20:34:15.138Z,16.24
2022-09-13T20:36:44.139Z,16.18
2022-09-13T20:39:11.121Z,16.15
2022-09-13T20:41:37.621Z,16.15
2022-09-13T20:44:04.112Z,16.17
2022-09-13T20:46:31.751Z,16.16
2022-09-13T20:48:58.559Z,16.15
2022-09-13T20:51:25.520Z,16.14
2022-09-13T20:54:00.360Z,16.15
2022-09-13T20:56:30.485Z,16.14
2022-09-13T20:59:00.152Z,16.10
2022-09-13T21:01:29.603Z,16.04
2022-09-13T21:03:56.720Z,16.04
2022-09-13T21:06:25.879Z,15.90
2022-09-13T21:08:53.036Z,15.95
2022-09-13T21:11:25.572Z,15.95
2022-09-13T21:13:54.763Z,15.94
2022-09-13T21:16:26.217Z,15.92
2022-09-13T21:18:53.370Z,15.91
2022-09-13T21:21:25.801Z,15.89
2022-09-13T21:23:52.777Z,15.88
2022-09-13T21:26:22.843Z,15.88
2022-09-13T21:28:50.117Z,15.83
2022-09-13T21:31:28.849Z,15.83
2022-09-13T21:34:00.602Z,15.82
2022-09-13T21:36:27.935Z,15.78
2022-09-13T21:38:57.950Z,15.81
2022-09-13T21:41:26.055Z,15.78
2022-09-13T21:43:52.990Z,15.76
2022-09-13T21:46:31.470Z,15.77
2022-09-13T21:49:00.337Z,15.69
2022-09-13T21:51:29.211Z,15.67
2022-09-13T21:53:58.914Z,15.60
2022-09-13T21:56:27.938Z,15.54
2022-09-13T21:58:58.299Z,15.37
2022-09-13T22:01:27.262Z,15.59
2022-09-13T22:03:54.133Z,15.62
2022-09-13T22:06:22.027Z,15.56
2022-09-13T22:08:56.622Z,15.55
2022-09-13T22:11:28.886Z,15.51
2022-09-13T22:13:56.975Z,15.52
2022-09-13T22:16:26.654Z,15.36
2022-09-13T22:18:59.403Z,15.44
2022-09-13T22:21:28.815Z,15.43
2022-09-13T22:23:55.968Z,15.50
2022-09-13T22:26:25.258Z,15.47
2022-09-13T22:28:53.663Z,15.45
2022-09-13T22:31:22.762Z,15.42
2022-09-13T22:33:50.687Z,15.37
2022-09-13T22:36:18.897Z,15.33
2022-09-13T22:38:51.901Z,15.30
2022-09-13T22:41:26.212Z,15.31
2022-09-13T22:43:53.201Z,15.27
2022-09-13T22:46:22.530Z,15.16
2022-09-13T22:48:49.561Z,15.20
2022-09-13T22:51:18.479Z,15.22
2022-09-13T22:53:47.736Z,15.21
2022-09-13T22:56:26.077Z,15.16
2022-09-13T22:58:54.951Z,15.11
2022-09-13T23:01:21.760Z,15.10
2022-09-13T23:03:49.193Z,15.09
2022-09-13T23:06:20.881Z,15.10
2022-09-13T23:08:48.991Z,15.10
2022-09-13T23:11:18.319Z,15.11
2022-09-13T23:13:46.749Z,15.11
2022-09-13T23:16:17.626Z,15.10
2022-09-13T23:18:44.272Z,15.04
2022-09-13T23:21:11.157Z,15.07
2022-09-13T23:23:38.063Z,15.07
2022-09-13T23:26:09.893Z,15.06
2022-09-13T23:28:37.553Z,15.11
2022-09-13T23:31:15.850Z,15.08
2022-09-13T23:33:44.468Z,15.09
2022-09-13T23:36:12.503Z,15.08
2022-09-13T23:38:39.765Z,15.08
2022-09-13T23:41:07.177Z,15.07
2022-09-13T23:43:34.387Z,15.11
2022-09-13T23:46:00.806Z,15.09
2022-09-13T23:48:27.283Z,15.11
2022-09-13T23:51:08.429Z,15.06
2022-09-13T23:53:36.546Z,15.12
2022-09-13T23:56:06.235Z,15.10
2022-09-13T23:58:32.773Z,15.11
